Portada
METAR-TAF:

METAR-TAF

Aeroports :

Lee's Summit Municipal Airport

Lee's Summit, Missouri, Estats Units d'Amèrica

latitud: 38-57-35N, longitud: 094-22-18W, altitud: 306 m

Observació

L'informe es va fer fa 59 minuts, a les 16:53 UTC
Vent 8 kt del Sud
Temperatura 31°C
Humitat 59%
Pressió 1025 hPa
Visibilitat: 16.1 km
Escasses núvols a una alçada de 3600 ft

METAR: KLXT 201653Z AUTO 19008KT 10SM FEW036 31/22 A3027 RMK AO2 SLP240 T03060217 $

Hora: 12:52 (17:52 UTC)


TAF: manca

Observacions i pronòstics meteorològics de més de 4000 aeroports (METAR i TAF).

Les estacions disponibles són els punts grocs i vermells al mapa.

Posi el ratolí al punt desitjat per veure el nom de l'estació.

Feu clic per veure les observacions i els pronòstics meteorològics.

Per canviar el mapa: feu clic els botons verds amb una creu de color negre per apropar; al botó verd amb un guió per allunyar la imatge; o en les fletxes verdes per a mapes adjacents.


METAR-TAF: